Antonia, MO

10:36 AM CDT on August 27, 2016 (GMT -0500)
Arrow RIdge | | Change Station

Elev 633 ft 38.40 °N, 90.43 °W | Updated 19 seconds ago

Clear
Clear
88.5 °F
Feels Like 98 °F
N
0.0
Wind Variable Wind from NW

Today
High -- | Low -- °F
--% Chance of Precip.
Yesterday
High -- | Low -- °F
Precip. -- in
Pressure 30.06 in
Visibility 10.0 miles
Clouds Clear
Heat Index 98 °F
Dew Point 74 °F
Humidity 63%
Rainfall 0.00 in
Snow Depth Not available.
6:27 AM 7:38 PM
Waning Crescent, 23% visible
METAR KCPS 271453Z 23003KT 10SM CLR 27/21 A3008 RMK AO2 SLP180 T02670206 50001
Pressure 30.06 in
Visibility 10.0 miles
Clouds Clear
Heat Index 98 °F
Dew Point 74 °F
Humidity 63%
Rainfall 0.00 in
Snow Depth Not available.
6:27 AM 7:38 PM
Waning Crescent, 23% visible
METAR KCPS 271453Z 23003KT 10SM CLR 27/21 A3008 RMK AO2 SLP180 T02670206 50001

10-Day Weather Forecast

Almanac

Astronomy

Aug. 27, 2016 Rise Set
Actual Time
Civil Twilight
Nautical Twilight
Astronomical Twilight
Moon
Length of Visible Light
Length of Day
Tomorrow will be .
, % of the Moon is Illuminated

Today's Extremes

State Highs State Lows

Community

WunderPhotos

Upload Photos

1,935,358 photos uploaded!

WunderBlog® & News

Nearby

Air Quality

  Air Quality AQ Index Pollutant
Not available.

Snow Depth

Station Depth Elevation

Earthquake Activity

City Distance Mag. Time & Date
Minimum magnitude displayed is 2.5.

Coastal Water Temperatures

Place Temperature

Stations

Nearby Weather Stations

Station Location Temp. Windchill Dew Point Humidity Wind Precip. Elev Updated Type
                   

Watches & Warnings

There are currently no watches in effect.